createdAt,value
2022-08-20T00:01:07.298Z,100895.81
2022-08-20T00:04:17.935Z,100908.06
2022-08-20T00:07:28.187Z,100899.19
2022-08-20T00:10:41.951Z,100904.56
2022-08-20T00:13:55.396Z,100901.00
2022-08-20T00:17:07.423Z,100901.16
2022-08-20T00:20:18.806Z,100895.28
2022-08-20T00:23:29.058Z,100899.72
2022-08-20T00:26:51.944Z,100897.97
2022-08-20T00:30:03.308Z,100894.50
2022-08-20T00:33:18.211Z,100891.81
2022-08-20T00:36:32.287Z,100905.97
2022-08-20T00:39:43.746Z,100905.94
2022-08-20T00:42:58.096Z,100901.53
2022-08-20T00:46:11.436Z,100900.56
2022-08-20T00:49:27.921Z,100896.97
2022-08-20T00:52:38.499Z,100901.38
2022-08-20T00:55:48.813Z,100901.41
2022-08-20T00:58:58.882Z,100896.91
2022-08-20T01:02:12.983Z,100900.53
2022-08-20T01:05:28.654Z,100897.94
2022-08-20T01:08:42.573Z,100904.13
2022-08-20T01:11:53.198Z,100899.78
2022-08-20T01:15:05.968Z,100899.78
2022-08-20T01:18:19.770Z,100898.06
2022-08-20T01:21:34.165Z,100903.38
2022-08-20T01:24:45.055Z,100898.13
2022-08-20T01:27:57.723Z,100898.13
2022-08-20T01:31:12.385Z,100901.69
2022-08-20T01:34:22.851Z,100900.75
2022-08-20T01:37:33.122Z,100909.53
2022-08-20T01:40:58.107Z,100912.13
2022-08-20T01:44:16.017Z,100912.91
2022-08-20T01:47:38.438Z,100915.56
2022-08-20T01:50:56.686Z,100921.69
2022-08-20T01:54:07.388Z,100920.69
2022-08-20T01:57:21.359Z,100917.09
2022-08-20T02:00:34.923Z,100913.41
2022-08-20T02:03:45.149Z,100922.06
2022-08-20T02:06:58.130Z,100922.00
2022-08-20T02:10:12.817Z,100919.41
2022-08-20T02:13:24.855Z,100921.13
2022-08-20T02:16:39.564Z,100930.81
2022-08-20T02:19:54.086Z,100924.69
2022-08-20T02:23:06.044Z,100926.56
2022-08-20T02:26:19.042Z,100925.75
2022-08-20T02:29:29.743Z,100923.94
2022-08-20T02:32:41.967Z,100932.66
2022-08-20T02:35:56.443Z,100932.63
2022-08-20T02:39:08.665Z,100929.16
2022-08-20T02:42:18.650Z,100923.00
2022-08-20T02:45:30.119Z,100916.84
2022-08-20T02:48:42.057Z,100918.59
2022-08-20T02:51:52.808Z,100917.63
2022-08-20T02:55:03.461Z,100916.59
2022-08-20T02:58:14.372Z,100919.13
2022-08-20T03:01:24.743Z,100928.78
2022-08-20T03:04:36.312Z,100927.91
2022-08-20T03:07:48.881Z,100923.53
2022-08-20T03:10:59.243Z,100925.31
2022-08-20T03:14:09.508Z,100921.91
2022-08-20T03:17:19.565Z,100913.13
2022-08-20T03:20:31.835Z,100910.44
2022-08-20T03:23:44.128Z,100912.13
2022-08-20T03:26:54.668Z,100914.75
2022-08-20T03:30:06.098Z,100915.63
2022-08-20T03:33:17.238Z,100924.41
2022-08-20T03:36:29.639Z,100930.69
2022-08-20T03:39:40.122Z,100924.56
2022-08-20T03:42:52.541Z,100927.19
2022-08-20T03:46:02.795Z,100930.69
2022-08-20T03:49:13.315Z,100934.25
2022-08-20T03:52:25.328Z,100945.72
2022-08-20T03:55:35.558Z,100948.56
2022-08-20T03:58:46.383Z,100952.13
2022-08-20T04:01:56.531Z,100955.84
2022-08-20T04:05:07.931Z,100954.25
2022-08-20T04:08:21.858Z,100963.19
2022-08-20T04:11:33.579Z,100969.41
2022-08-20T04:14:44.187Z,100966.72
2022-08-20T04:17:54.604Z,100965.91
2022-08-20T04:21:05.741Z,100970.41
2022-08-20T04:24:22.654Z,100971.38
2022-08-20T04:27:42.608Z,100973.28
2022-08-20T04:30:53.431Z,100970.53
2022-08-20T04:34:04.796Z,100969.63
2022-08-20T04:37:16.932Z,100967.88
2022-08-20T04:40:47.758Z,100971.78
2022-08-20T04:43:58.264Z,100975.31
2022-08-20T04:47:08.623Z,100965.72
2022-08-20T04:50:21.265Z,100980.72
2022-08-20T04:53:31.624Z,100977.34
2022-08-20T04:56:43.269Z,100974.75
2022-08-20T04:59:57.683Z,100972.28
2022-08-20T05:03:09.709Z,100979.44
2022-08-20T05:06:20.050Z,100981.28
2022-08-20T05:09:32.441Z,100973.50
2022-08-20T05:12:57.151Z,100983.16
2022-08-20T05:16:08.317Z,100975.28
2022-08-20T05:19:18.537Z,100978.75
2022-08-20T05:22:31.052Z,100976.28
2022-08-20T05:25:42.876Z,100978.94
2022-08-20T05:28:58.476Z,100979.66
2022-08-20T05:32:12.330Z,100980.66
2022-08-20T05:35:22.791Z,100979.91
2022-08-20T05:38:34.885Z,100992.50
2022-08-20T05:41:45.355Z,100982.97
2022-08-20T05:44:56.916Z,100989.25
2022-08-20T05:48:07.835Z,100993.63
2022-08-20T05:51:18.383Z,100989.03
2022-08-20T05:54:28.836Z,100996.78
2022-08-20T05:57:39.021Z,100992.66
2022-08-20T06:00:51.978Z,101003.41
2022-08-20T06:04:19.908Z,101001.53
2022-08-20T06:07:30.327Z,100997.19
2022-08-20T06:10:42.657Z,100993.16
2022-08-20T06:13:53.474Z,100996.78
2022-08-20T06:17:07.444Z,100993.28
2022-08-20T06:20:18.010Z,101003.06
2022-08-20T06:23:50.345Z,101001.34
2022-08-20T06:27:00.901Z,100991.56
2022-08-20T06:30:13.533Z,101001.22
2022-08-20T06:33:25.400Z,100997.69
2022-08-20T06:36:35.525Z,100998.66
2022-08-20T06:39:46.060Z,100999.63
2022-08-20T06:42:58.239Z,100994.31
2022-08-20T06:46:08.780Z,100986.63
2022-08-20T06:49:19.976Z,100991.81
2022-08-20T06:52:52.425Z,100998.47
2022-08-20T06:56:00.914Z,101012.16
2022-08-20T06:59:11.080Z,101010.66
2022-08-20T07:02:21.104Z,101016.28
2022-08-20T07:05:43.073Z,101021.84
2022-08-20T07:08:53.662Z,101019.41
2022-08-20T07:12:04.932Z,101021.19
2022-08-20T07:15:16.008Z,101022.22
2022-08-20T07:18:28.237Z,101023.94
2022-08-20T07:21:42.077Z,101027.59
2022-08-20T07:24:53.055Z,101034.25
2022-08-20T07:28:05.064Z,101044.47
2022-08-20T07:31:34.935Z,101047.56
2022-08-20T07:34:45.802Z,101036.06
2022-08-20T07:37:59.919Z,101046.03
2022-08-20T07:41:15.023Z,101049.72
2022-08-20T07:44:29.180Z,101047.31
2022-08-20T07:47:43.793Z,101057.22
2022-08-20T07:50:55.338Z,101054.41
2022-08-20T07:54:07.223Z,101059.81
2022-08-20T07:57:18.764Z,101060.97
2022-08-20T08:00:28.821Z,101062.16
2022-08-20T08:03:49.123Z,101064.88
2022-08-20T08:07:01.331Z,101067.78
2022-08-20T08:10:18.308Z,101071.19
2022-08-20T08:13:32.307Z,101069.28
2022-08-20T08:16:45.618Z,101076.47
2022-08-20T08:19:56.289Z,101087.34
2022-08-20T08:23:07.185Z,101089.13
2022-08-20T08:26:21.778Z,101087.03
2022-08-20T08:29:31.861Z,101083.06
2022-08-20T08:33:01.914Z,101085.00
2022-08-20T08:36:14.507Z,101078.75
2022-08-20T08:39:24.578Z,101073.44
2022-08-20T08:42:45.947Z,101070.00
2022-08-20T08:46:01.599Z,101076.25
2022-08-20T08:49:17.350Z,101080.47
2022-08-20T08:52:31.541Z,101076.94
2022-08-20T08:55:42.221Z,101085.63
2022-08-20T08:58:55.536Z,101082.81
2022-08-20T09:02:07.686Z,101091.84
2022-08-20T09:05:21.659Z,101093.66
2022-08-20T09:08:38.595Z,101096.44
2022-08-20T09:11:53.143Z,101092.09
2022-08-20T09:15:05.684Z,101099.31
2022-08-20T09:18:15.818Z,101099.19
2022-08-20T09:21:26.004Z,101103.81
2022-08-20T09:24:36.371Z,101099.38
2022-08-20T09:27:46.720Z,101108.22
2022-08-20T09:31:00.493Z,101102.03
2022-08-20T09:34:11.022Z,101104.56
2022-08-20T09:37:21.141Z,101113.34
2022-08-20T09:40:31.469Z,101102.75
2022-08-20T09:43:41.616Z,101095.59
2022-08-20T09:46:53.265Z,101098.34
2022-08-20T09:50:03.918Z,101097.56
2022-08-20T09:53:15.047Z,101100.53
2022-08-20T09:56:25.685Z,101106.75
2022-08-20T09:59:37.437Z,101100.56
2022-08-20T10:02:49.946Z,101101.47
2022-08-20T10:06:00.811Z,101102.31
2022-08-20T10:09:11.256Z,101100.56
2022-08-20T10:12:21.818Z,101098.81
2022-08-20T10:15:32.399Z,101099.81
2022-08-20T10:18:44.267Z,101106.78
2022-08-20T10:21:55.109Z,101102.31
2022-08-20T10:25:06.114Z,101101.47
2022-08-20T10:28:16.581Z,101102.47
2022-08-20T10:31:26.636Z,101112.25
2022-08-20T10:34:38.014Z,101114.91
2022-08-20T10:37:48.216Z,101114.06
2022-08-20T10:40:58.373Z,101116.69
2022-08-20T10:44:08.852Z,101114.00
2022-08-20T10:47:23.071Z,101119.25
2022-08-20T10:50:35.094Z,101117.56
2022-08-20T10:53:45.651Z,101130.94
2022-08-20T10:56:56.335Z,101130.03
2022-08-20T11:00:08.508Z,101136.22
2022-08-20T11:03:19.305Z,101137.09
2022-08-20T11:06:31.222Z,101128.13
2022-08-20T11:09:41.758Z,101126.19
2022-08-20T11:12:52.084Z,101136.03
2022-08-20T11:16:02.521Z,101137.81
2022-08-20T11:19:13.093Z,101144.81
2022-08-20T11:22:25.984Z,101152.81
2022-08-20T11:25:36.008Z,101140.41
2022-08-20T11:28:46.250Z,101156.38
2022-08-20T11:31:56.497Z,101146.59
2022-08-20T11:35:38.439Z,101134.09
2022-08-20T11:38:39.476Z,101132.34
2022-08-20T11:41:55.386Z,101142.16
2022-08-20T11:45:07.448Z,101136.09
2022-08-20T11:48:18.359Z,101145.78
2022-08-20T11:51:28.714Z,101140.38
2022-08-20T11:54:44.395Z,101144.84
2022-08-20T11:57:54.618Z,101143.22
2022-08-20T12:01:10.586Z,101141.56
2022-08-20T12:04:20.888Z,101131.78
2022-08-20T12:07:32.148Z,101137.91
2022-08-20T12:10:43.725Z,101143.03
2022-08-20T12:13:54.159Z,101150.09
2022-08-20T12:17:09.630Z,101150.81
2022-08-20T12:20:20.229Z,101148.06
2022-08-20T12:23:30.593Z,101149.09
2022-08-20T12:26:42.262Z,101150.13
2022-08-20T12:29:54.488Z,101147.41
2022-08-20T12:33:04.883Z,101149.13
2022-08-20T12:36:16.292Z,101144.75
2022-08-20T12:39:26.709Z,101156.34
2022-08-20T12:42:39.011Z,101143.88
2022-08-20T12:45:49.208Z,101148.19
2022-08-20T12:48:59.509Z,101145.56
2022-08-20T12:52:10.904Z,101153.50
2022-08-20T12:55:21.613Z,101155.19
2022-08-20T12:58:33.524Z,101163.13
2022-08-20T13:01:44.048Z,101155.22
2022-08-20T13:04:55.140Z,101154.19
2022-08-20T13:08:09.356Z,101156.03
2022-08-20T13:11:19.673Z,101153.50
2022-08-20T13:14:32.708Z,101159.75
2022-08-20T13:17:43.802Z,101165.97
2022-08-20T13:20:53.993Z,101162.53
2022-08-20T13:24:04.557Z,101155.44
2022-08-20T13:27:17.520Z,101161.53
2022-08-20T13:30:29.151Z,101159.84
2022-08-20T13:33:39.507Z,101167.00
2022-08-20T13:36:49.385Z,101161.66
2022-08-20T13:40:00.566Z,101158.09
2022-08-20T13:43:12.039Z,101152.69
2022-08-20T13:46:23.767Z,101157.94
2022-08-20T13:49:33.966Z,101150.97
2022-08-20T13:52:46.013Z,101161.69
2022-08-20T13:55:56.810Z,101155.50
2022-08-20T13:59:07.346Z,101154.56
2022-08-20T14:02:24.753Z,101143.84
2022-08-20T14:05:35.750Z,101140.31
2022-08-20T14:08:46.472Z,101143.81
2022-08-20T14:11:58.184Z,101142.88
2022-08-20T14:15:10.063Z,101149.91
2022-08-20T14:18:21.894Z,101136.50
2022-08-20T14:21:32.450Z,101141.78
2022-08-20T14:24:42.476Z,101139.06
2022-08-20T14:27:53.422Z,101153.97
2022-08-20T14:31:04.017Z,101145.78
2022-08-20T14:34:15.829Z,101147.50
2022-08-20T14:37:28.152Z,101164.50
2022-08-20T14:40:38.462Z,101168.03
2022-08-20T14:43:48.714Z,101162.69
2022-08-20T14:47:11.346Z,101163.63
2022-08-20T14:50:25.378Z,101159.94
2022-08-20T14:53:40.369Z,101167.00
2022-08-20T14:56:50.988Z,101160.84
2022-08-20T15:00:03.119Z,101168.84
2022-08-20T15:03:14.345Z,101167.09
2022-08-20T15:06:25.986Z,101157.25
2022-08-20T15:09:37.497Z,101164.28
2022-08-20T15:12:48.389Z,101159.56
2022-08-20T15:15:58.786Z,101163.09
2022-08-20T15:19:08.764Z,101159.56
2022-08-20T15:22:21.534Z,101169.47
2022-08-20T15:25:36.390Z,101171.25
2022-08-20T15:28:48.468Z,101168.53
2022-08-20T15:31:58.739Z,101170.34
2022-08-20T15:35:11.392Z,101170.28
2022-08-20T15:38:23.014Z,101179.00
2022-08-20T15:41:34.688Z,101178.91
2022-08-20T15:44:46.236Z,101169.78
2022-08-20T15:48:03.279Z,101176.75
2022-08-20T15:51:23.108Z,101174.00
2022-08-20T15:54:36.471Z,101177.44
2022-08-20T15:57:55.908Z,101177.47
2022-08-20T16:01:24.519Z,101180.09
2022-08-20T16:05:00.466Z,101177.38
2022-08-20T16:08:23.070Z,101180.06
2022-08-20T16:11:44.444Z,101179.16
2022-08-20T16:15:01.387Z,101186.09
2022-08-20T16:18:17.959Z,101183.31
2022-08-20T16:21:34.545Z,101189.53
2022-08-20T16:24:44.863Z,101196.56
2022-08-20T16:28:04.851Z,101195.63
2022-08-20T16:31:20.125Z,101192.97
2022-08-20T16:34:38.299Z,101203.59
2022-08-20T16:37:57.342Z,101202.56
2022-08-20T16:41:12.943Z,101207.72
2022-08-20T16:44:32.832Z,101202.31
2022-08-20T16:47:43.212Z,101199.56
2022-08-20T16:50:58.739Z,101205.47
2022-08-20T16:54:09.973Z,101214.25
2022-08-20T16:57:19.991Z,101208.13
2022-08-20T17:00:35.633Z,101214.22
2022-08-20T17:03:54.858Z,101210.63
2022-08-20T17:07:08.821Z,101210.47
2022-08-20T17:10:24.584Z,101210.38
2022-08-20T17:13:37.198Z,101217.44
2022-08-20T17:16:51.702Z,101216.50
2022-08-20T17:20:06.207Z,101228.78
2022-08-20T17:23:18.938Z,101222.53
2022-08-20T17:26:35.074Z,101223.31
2022-08-20T17:29:52.354Z,101218.78
2022-08-20T17:33:06.717Z,101219.56
2022-08-20T17:36:21.122Z,101222.19
2022-08-20T17:39:32.279Z,101223.81
2022-08-20T17:42:52.132Z,101221.25
2022-08-20T17:46:07.557Z,101227.22
2022-08-20T17:49:33.834Z,101225.38
2022-08-20T17:52:49.173Z,101226.19
2022-08-20T17:56:03.622Z,101222.59
2022-08-20T17:59:23.959Z,101222.41
2022-08-20T18:02:44.318Z,101212.47
2022-08-20T18:06:12.635Z,101219.31
2022-08-20T18:09:29.942Z,101219.22
2022-08-20T18:12:46.294Z,101220.22
2022-08-20T18:15:58.645Z,101213.88
2022-08-20T18:19:16.293Z,101219.09
2022-08-20T18:22:31.518Z,101222.47
2022-08-20T18:25:47.927Z,101219.81
2022-08-20T18:29:03.831Z,101232.59
2022-08-20T18:32:30.376Z,101238.56
2022-08-20T18:35:45.464Z,101242.69
2022-08-20T18:39:03.667Z,101246.03
2022-08-20T18:42:25.822Z,101246.69
2022-08-20T18:45:37.649Z,101251.78
2022-08-20T18:48:54.155Z,101244.59
2022-08-20T18:52:11.809Z,101249.63
2022-08-20T18:55:33.374Z,101260.00
2022-08-20T18:58:55.478Z,101253.69
2022-08-20T19:02:17.589Z,101256.13
2022-08-20T19:05:32.457Z,101246.22
2022-08-20T19:08:48.792Z,101250.53
2022-08-20T19:12:46.889Z,101246.78
2022-08-20T19:16:05.941Z,101250.13
2022-08-20T19:19:18.082Z,101252.63
2022-08-20T19:22:29.226Z,101260.25
2022-08-20T19:25:44.232Z,101256.47
2022-08-20T19:28:58.906Z,101253.56
2022-08-20T19:32:20.338Z,101261.44
2022-08-20T19:35:31.486Z,101254.09
2022-08-20T19:38:47.278Z,101262.75
2022-08-20T19:42:04.523Z,101263.47
2022-08-20T19:45:24.552Z,101270.41
2022-08-20T19:48:49.805Z,101268.47
2022-08-20T19:52:09.796Z,101266.66
2022-08-20T19:55:24.424Z,101267.47
2022-08-20T19:58:35.349Z,101267.38
2022-08-20T20:01:58.753Z,101277.75
2022-08-20T20:05:11.761Z,101270.50
2022-08-20T20:08:24.122Z,101264.19
2022-08-20T20:11:37.350Z,101270.22
2022-08-20T20:14:48.845Z,101267.50
2022-08-20T20:18:00.936Z,101266.50
2022-08-20T20:21:16.807Z,101262.84
2022-08-20T20:24:31.401Z,101267.91
2022-08-20T20:27:42.175Z,101268.75
2022-08-20T20:30:52.309Z,101261.59
2022-08-20T20:34:08.671Z,101257.91
2022-08-20T20:37:34.783Z,101264.97
2022-08-20T20:41:02.691Z,101270.13
2022-08-20T20:44:21.156Z,101259.22
2022-08-20T20:47:36.011Z,101266.13
2022-08-20T20:50:48.100Z,101267.72
2022-08-20T20:54:03.965Z,101250.81
2022-08-20T20:57:38.046Z,101252.41
2022-08-20T21:00:49.538Z,101249.53
2022-08-20T21:03:59.762Z,101248.53
2022-08-20T21:07:12.348Z,101249.31
2022-08-20T21:10:26.072Z,101249.06
2022-08-20T21:13:36.740Z,101245.53
2022-08-20T21:16:47.533Z,101252.41
2022-08-20T21:20:00.848Z,101255.88
2022-08-20T21:23:11.305Z,101251.66
2022-08-20T21:26:22.942Z,101251.50
2022-08-20T21:29:33.616Z,101250.41
2022-08-20T21:32:44.275Z,101247.56
2022-08-20T21:35:54.764Z,101250.88
2022-08-20T21:39:05.339Z,101255.84
2022-08-20T21:42:29.301Z,101250.34
2022-08-20T21:45:40.023Z,101243.13
2022-08-20T21:48:53.676Z,101250.06
2022-08-20T21:52:04.352Z,101244.66
2022-08-20T21:55:15.035Z,101245.16
2022-08-20T21:58:26.752Z,101253.56
2022-08-20T22:01:38.823Z,101248.00
2022-08-20T22:04:49.405Z,101256.59
2022-08-20T22:08:04.850Z,101251.16
2022-08-20T22:11:15.246Z,101255.47
2022-08-20T22:14:27.071Z,101261.63
2022-08-20T22:17:37.513Z,101255.31
2022-08-20T22:20:47.583Z,101255.13
2022-08-20T22:24:00.147Z,101258.63
2022-08-20T22:27:10.526Z,101249.75
2022-08-20T22:30:22.307Z,101245.44
2022-08-20T22:33:33.967Z,101246.34
2022-08-20T22:36:44.684Z,101245.38
2022-08-20T22:39:55.050Z,101244.38
2022-08-20T22:43:05.660Z,101240.72
2022-08-20T22:46:18.087Z,101243.31
2022-08-20T22:49:31.887Z,101243.25
2022-08-20T22:52:43.450Z,101248.25
2022-08-20T22:55:54.540Z,101242.78
2022-08-20T22:59:06.199Z,101237.22
2022-08-20T23:02:20.356Z,101237.94
2022-08-20T23:05:33.362Z,101223.75
2022-08-20T23:08:44.980Z,101228.03
2022-08-20T23:11:55.510Z,101219.06
2022-08-20T23:15:07.897Z,101212.84
2022-08-20T23:18:21.048Z,101217.28
2022-08-20T23:21:31.083Z,101211.97
2022-08-20T23:24:41.783Z,101205.69
2022-08-20T23:27:54.698Z,101210.03
2022-08-20T23:31:05.663Z,101211.66
2022-08-20T23:34:17.388Z,101207.84
2022-08-20T23:37:27.753Z,101203.25
2022-08-20T23:40:38.384Z,101210.06
2022-08-20T23:43:48.513Z,101206.34
2022-08-20T23:47:08.116Z,101211.38
2022-08-20T23:50:24.227Z,101206.72
2022-08-20T23:53:34.865Z,101204.88
2022-08-20T23:56:45.008Z,101203.91
2022-08-20T23:59:55.426Z,101196.69
